Flight Track Log - Related Links

Times and Time Zones

All times are in EDT time to prevent confusion due to time zone crossing. See the GJS3707 flight status page for this flight to view local times or setup timezone preferences in your user account.

Time Position Orientation Groundspeed Altitude Reporting Facility
EDT Latitude Longitude Course Direction KTS MPH feet Rate Location/Type
Sat 02:46:39 PM 42.0000 -87.9500 261° West 171 197 1,600  Level Chicago TRACON
Sat 02:47:34 PM 42.0000 -88.0000 270° West 183 211 3,100 1,670 Climbing Chicago TRACON
Sat 02:48:34 PM 42.0000 -88.0833 270° West 238 274 4,800 1,864 Climbing Chicago TRACON
Sat 02:49:17 PM 41.9928 -88.1589 263° West 252 290 6,300 2,400 Climbing Chicago Center
Sat 02:50:00 PM 41.9167 -88.4533 270° West  Level FlightAware Approximate
Sat 02:50:19 PM 41.9833 -88.2617 263° West 279 321 9,000  Level Chicago Center
Sat 02:51:00 PM 41.9019 -88.5931 261° West  Level FlightAware Approximate
Sat 02:51:21 PM 41.9731 -88.3619 262° West 276 318 11,400  Level Chicago Center
Sat 02:52:23 PM 41.9517 -88.4658 255° West 285 328 13,500 1,935 Climbing Chicago Center
Sat 02:53:25 PM 41.9225 -88.5733 250° West 303 349 15,400 1,645 Climbing Chicago Center
Sat 02:54:27 PM 41.8864 -88.7092 250° West 322 371 16,900 774 Climbing Chicago Center
Sat 02:55:29 PM 41.8767 -88.8278 264° West 322 371 17,000 634 Climbing Chicago Center
Sat 02:56:30 PM 41.8667 -88.9461 264° West 321 369 18,200 1,463 Climbing Chicago Center
Sat 02:57:32 PM 41.8558 -89.0639 263° West 323 372 20,000 1,839 Climbing Chicago Center
Sat 02:58:34 PM 41.8494 -89.1828 266° West 321 369 22,000 1,776 Climbing Chicago Center
Sat 02:59:37 PM 41.8497 -89.3250 270° West 322 371 23,700 1,500 Climbing Chicago Center
Sat 03:00:38 PM 41.8483 -89.4464 269° West 326 375 25,100 1,171 Climbing Chicago Center
Sat 03:01:40 PM 41.8461 -89.5722 269° West 339 390 26,100 968 Climbing Chicago Center
Sat 03:02:42 PM 41.8450 -89.7028 269° West 351 404 27,100 919 Climbing Chicago Center
Sat 03:03:44 PM 41.8414 -89.8381 268° West 363 418 28,000 774 Climbing Chicago Center
Sat 03:04:46 PM 41.8403 -89.9769 269° West 376 433 28,700 726 Climbing Chicago Center
Sat 03:05:48 PM 41.8369 -90.1483 269° West 388 447 29,500 726 Climbing Chicago Center
Sat 03:06:50 PM 41.8344 -90.2958 269° West 396 456 30,200 677 Climbing Chicago Center
Sat 03:07:52 PM 41.8308 -90.4472 268° West 401 461 30,900 683 Climbing Chicago Center
Sat 03:08:53 PM 41.8267 -90.5972 268° West 407 468 31,600 683 Climbing Chicago Center
Sat 03:09:55 PM 41.8217 -90.7508 268° West 414 476 32,300 871 Climbing Chicago Center
Sat 03:10:57 PM 41.8169 -90.9300 268° West 407 468 33,400 1,065 Climbing Chicago Center
Sat 03:11:59 PM 41.8139 -91.0767 268° West 398 458 34,500 1,122 Climbing Chicago Center
Sat 03:13:00 PM 41.8089 -91.2206 267° West 389 448 35,700 732 Climbing Chicago Center
Sat 03:14:02 PM 41.8053 -91.3583 268° West 377 434 36,000 145 Climbing Chicago Center
Sat 03:15:04 PM 41.8008 -91.4978 268° West 377 434 36,000  Level Chicago Center
Sat 03:16:06 PM 41.7964 -91.6386 268° West 380 437 36,000  Level Chicago Center
Sat 03:17:08 PM 41.7906 -91.8061 267° West 377 434 36,000  Level Chicago Center
Sat 03:18:10 PM 41.7856 -91.9481 267° West 381 438 36,000  Level Chicago Center
Sat 03:19:11 PM 41.7808 -92.0889 267° West 381 438 36,000  Level Chicago Center
Sat 03:20:13 PM 41.7753 -92.2258 267° West 374 430 36,000  Level Chicago Center
Sat 03:21:15 PM 41.7706 -92.3625 267° West 370 426 36,000  Level Chicago Center
Sat 03:22:16 PM 41.7650 -92.4978 267° West 368 423 36,000  Level Chicago Center
Sat 03:23:18 PM 41.7589 -92.6319 267° West 363 418 36,000  Level Chicago Center
Sat 03:24:20 PM 41.7519 -92.7942 267° West 366 421 36,000  Level Chicago Center
Sat 03:25:22 PM 41.7467 -92.9289 267° West 367 422 36,000  Level Chicago Center
Sat 03:26:28 PM 41.7408 -93.0692 267° West 367 422 36,000  Level Minneapolis Center
Sat 03:27:30 PM 41.7342 -93.2044 266° West 368 423 36,000  Level Minneapolis Center
Sat 03:28:31 PM 41.7264 -93.3678 266° West 371 427 36,000  Level Minneapolis Center
Sat 03:29:33 PM 41.7192 -93.5028 266° West 370 426 36,000  Level Minneapolis Center
Sat 03:30:34 PM 41.7128 -93.6386 266° West 369 425 36,000  Level Minneapolis Center
Sat 03:31:36 PM 41.7058 -93.7747 266° West 371 427 36,000 49 Level Minneapolis Center
Sat 03:32:37 PM 41.6986 -93.9142 266° West 373 429 36,100 293 Climbing Minneapolis Center
Sat 03:33:39 PM 41.6908 -94.0514 266° West 372 428 36,600 484 Climbing Minneapolis Center
Sat 03:34:41 PM 41.6786 -94.1875 263° West 370 426 37,100 489 Climbing Minneapolis Center
Sat 03:35:54 PM 41.6719 -94.3542 267° West 373 429 37,700 400 Climbing Minneapolis Center
Sat 03:36:56 PM 41.6631 -94.5172 266° West 369 425 38,000 146 Climbing Minneapolis Center
Sat 03:37:57 PM 41.6547 -94.6533 265° West 368 423 38,000  Level Minneapolis Center
Sat 03:38:59 PM 41.6508 -94.7875 268° West 363 418 38,000  Level Minneapolis Center
Sat 03:40:01 PM 41.6428 -94.9206 265° West 360 414 38,000  Level Minneapolis Center
Sat 03:41:02 PM 41.6328 -95.0514 264° West 356 410 38,000  Level Minneapolis Center
Sat 03:42:03 PM 41.6258 -95.1819 266° West 352 405 38,000  Level Minneapolis Center
Sat 03:43:05 PM 41.6158 -95.3119 264° West 352 405 38,000  Level Minneapolis Center
Sat 03:44:06 PM 41.6064 -95.4661 265° West 347 399 38,000  Level Minneapolis Center
Sat 03:45:08 PM 41.5975 -95.5922 265° West 342 394 38,000  Level Minneapolis Center
Sat 03:46:09 PM 41.5883 -95.7150 264° West 337 388 38,000  Level Minneapolis Center
Sat 03:47:11 PM 41.5800 -95.8389 265° West 337 388 38,000  Level Minneapolis Center
Sat 03:48:12 PM 41.5731 -95.9358 265° West 330 380 38,000  Level Minneapolis Center
Sat 03:49:26 PM 41.5628 -96.0828 265° West 333 383 38,000  Level Minneapolis Center
Sat 03:50:27 PM 41.5525 -96.2317 265° West 335 386 38,000  Level Minneapolis Center
Sat 03:51:29 PM 41.5419 -96.3797 265° West 345 397 38,000  Level Minneapolis Center
Sat 03:52:30 PM 41.5322 -96.5064 264° West 347 399 38,000  Level Minneapolis Center
Sat 03:53:32 PM 41.5211 -96.6372 264° West 353 406 38,000  Level Minneapolis Center
Sat 03:54:33 PM 41.5108 -96.7692 264° West 358 412 38,000  Level Minneapolis Center
Sat 03:55:35 PM 41.5014 -96.9033 265° West 363 418 38,000  Level Minneapolis Center
Sat 03:56:48 PM 41.4875 -97.0672 264° West 370 426 38,000  Level Minneapolis Center
Sat 03:57:50 PM 41.4761 -97.2072 264° West 377 434 38,000  Level Minneapolis Center
Sat 03:58:51 PM 41.4625 -97.3750 264° West 380 437 38,000  Level Minneapolis Center
Sat 03:59:53 PM 41.4514 -97.5164 264° West 383 441 38,000  Level Minneapolis Center
Sat 04:00:54 PM 41.4372 -97.6592 263° West 388 447 38,000  Level Minneapolis Center
Sat 04:01:55 PM 41.4264 -97.8019 264° West 388 447 38,000  Level Minneapolis Center
Sat 04:02:57 PM 41.4139 -97.9450 263° West 390 449 38,000  Level Minneapolis Center
Sat 04:03:58 PM 41.4003 -98.0900 263° West 394 453 38,000  Level Minneapolis Center
Sat 04:05:00 PM 41.3869 -98.2433 263° West 393 452 38,000  Level Minneapolis Center
Sat 04:06:01 PM 41.3808 -98.3886 267° West 395 455 38,000  Level Minneapolis Center
Sat 04:07:02 PM 41.3972 -98.5283 279° West 407 468 38,000  Level Minneapolis Center
Sat 04:08:04 PM 41.4197 -98.7067 280° West 408 470 38,000  Level Minneapolis Center
Sat 04:09:05 PM 41.4381 -98.8553 279° West 407 468 38,000  Level Minneapolis Center
Sat 04:09:42 PM 41.4494 -98.9475 279° West 405 466 38,000  Level Denver Center
Sat 04:10:55 PM 41.4667 -99.0944 279° West 405 466 38,000  Level Denver Center
Sat 04:11:57 PM 41.4869 -99.2694 279° West 401 461 38,000  Level Denver Center
Sat 04:12:59 PM 41.5042 -99.4136 279° West 398 458 38,000  Level Denver Center
Sat 04:14:01 PM 41.5197 -99.5572 278° West 394 453 38,000  Level Denver Center
Sat 04:15:02 PM 41.5358 -99.6997 279° West 391 450 38,000  Level Denver Center
Sat 04:16:04 PM 41.5539 -99.8583 279° West 389 448 38,000  Level Denver Center
Sat 04:17:06 PM 41.5700 -100.0158 278° West 386 444 38,000  Level Denver Center
Sat 04:18:07 PM 41.5856 -100.1517 279° West 387 445 38,000  Level Denver Center
Sat 04:19:09 PM 41.5994 -100.2856 278° West 384 442 38,000  Level Denver Center
Sat 04:20:11 PM 41.6164 -100.4431 278° West 384 442 38,000  Level Denver Center
Sat 04:21:25 PM 41.6356 -100.6217 278° West 383 441 38,000  Level Denver Center
Sat 04:22:26 PM 41.6494 -100.7547 278° West 380 437 38,000  Level Denver Center
Sat 04:23:28 PM 41.6650 -100.9108 278° West 382 440 38,000  Level Denver Center
Sat 04:24:29 PM 41.6778 -101.0419 277° West 376 433 38,000  Level Denver Center
Sat 04:25:31 PM 41.6911 -101.1761 278° West 380 437 38,000  Level Denver Center
Sat 04:26:33 PM 41.7064 -101.3314 278° West 379 436 38,000  Level Denver Center
Sat 04:27:34 PM 41.7194 -101.4650 278° West 379 436 38,000  Level Denver Center
Sat 04:28:36 PM 41.7336 -101.6219 277° West 381 438 38,000  Level Denver Center
Sat 04:29:37 PM 41.7469 -101.7550 278° West 379 436 38,000  Level Denver Center
Sat 04:30:39 PM 41.7611 -101.9114 277° West 380 437 38,000  Level Denver Center
Sat 04:31:41 PM 41.7739 -102.0456 277° West 380 437 38,000  Level Denver Center
Sat 04:32:42 PM 41.7853 -102.1794 277° West 379 436 38,000  Level Denver Center
Sat 04:33:44 PM 41.7978 -102.3247 277° West 381 438 38,000  Level Denver Center
Sat 04:34:45 PM 41.8117 -102.4803 277° West 378 435 38,000  Level Denver Center
Sat 04:35:47 PM 41.8225 -102.6142 276° West 378 435 38,000  Level Denver Center
Sat 04:36:49 PM 41.8367 -102.7697 277° West 377 434 38,000  Level Denver Center
Sat 04:37:50 PM 41.8469 -102.9019 276° West 375 432 38,000  Level Denver Center
Sat 04:38:52 PM 41.8589 -103.0350 277° West 373 429 38,000  Level Denver Center
Sat 04:39:54 PM 41.8711 -103.1906 276° West 375 432 38,000  Level Denver Center
Sat 04:40:55 PM 41.8819 -103.3217 276° West 370 426 38,000  Level Denver Center
Sat 04:41:57 PM 41.8961 -103.4753 277° West 370 426 38,000  Level Denver Center
Sat 04:42:58 PM 41.9364 -103.6025 293° West 385 443 38,000  Level Denver Center
Sat 04:44:00 PM 41.9875 -103.7469 295° West 385 443 38,000  Level Denver Center
Sat 04:45:02 PM 42.0308 -103.8714 295° West 384 442 38,000  Level Denver Center
Sat 04:46:03 PM 42.0750 -103.9956 296° West 384 442 38,000  Level Denver Center
Sat 04:47:05 PM 42.1242 -104.1411 295° West 382 440 38,000  Level Denver Center
Sat 04:48:07 PM 42.1683 -104.2667 295° West 385 443 38,000  Level Denver Center
Sat 04:49:08 PM 42.2192 -104.4136 295° West 386 444 38,000  Level Denver Center
Sat 04:50:10 PM 42.2622 -104.5400 295° West 384 442 38,000  Level Denver Center
Sat 04:51:11 PM 42.3058 -104.6683 295° West 389 448 38,000  Level Denver Center
Sat 04:52:13 PM 42.3567 -104.8178 295° West 389 448 38,000  Level Denver Center
Sat 04:53:15 PM 42.3989 -104.9464 294° West 388 447 38,000  Level Denver Center
Sat 04:54:16 PM 42.4433 -105.0736 295° West 389 448 38,000  Level Denver Center
Sat 04:55:18 PM 42.4931 -105.2225 294° West 389 448 38,000  Level Denver Center
Sat 04:56:20 PM 42.5364 -105.3508 295° West 391 450 38,000  Level Denver Center
Sat 04:57:21 PM 42.5864 -105.5042 294° West 396 456 38,000  Level Denver Center
Sat 04:58:23 PM 42.6297 -105.6336 295° West 395 455 38,000  Level Denver Center
Sat 04:59:25 PM 42.6797 -105.7847 294° West 393 452 38,000  Level Denver Center
Sat 05:00:26 PM 42.7208 -105.9161 293° West 394 453 38,000  Level Denver Center
Sat 05:01:28 PM 42.7639 -106.0458 294° West 394 453 38,000  Level Denver Center
Sat 05:02:29 PM 42.8122 -106.1981 293° West 393 452 38,000  Level Denver Center
Sat 05:03:31 PM 42.8489 -106.3050 295° West 392 451 38,000  Level Denver Center
Sat 05:04:33 PM 42.9047 -106.4806 294° West 395 455 38,000  Level Denver Center
Sat 05:05:35 PM 42.9469 -106.6106 294° West 393 452 38,000  Level Denver Center
Sat 05:06:36 PM 42.9944 -106.7644 293° West 394 453 38,000  Level Denver Center
Sat 05:07:38 PM 43.0369 -106.8964 294° West 394 453 38,000  Level Denver Center
Sat 05:08:38 PM 43.0747 -107.0272 292° West 387 445 38,000  Level Salt Lake Center
Sat 05:09:40 PM 43.1242 -107.1814 294° West 394 453 38,000  Level Salt Lake Center
Sat 05:10:42 PM 43.1650 -107.3147 293° West 395 455 38,000  Level Salt Lake Center
Sat 05:11:43 PM 43.2122 -107.4675 293° West 392 451 38,000  Level Salt Lake Center
Sat 05:12:45 PM 43.2525 -107.6017 292° West 395 455 38,000  Level Salt Lake Center
Sat 05:13:47 PM 43.2925 -107.7333 293° West 392 451 38,000  Level Salt Lake Center
Sat 05:14:49 PM 43.3403 -107.8892 293° West 395 455 38,000  Level Salt Lake Center
Sat 05:15:50 PM 43.3800 -108.0231 292° West 395 455 38,000  Level Salt Lake Center
Sat 05:16:52 PM 43.4278 -108.1825 292° West 400 460 38,000  Level Salt Lake Center
Sat 05:17:54 PM 43.4650 -108.3181 291° West 396 456 38,000  Level Salt Lake Center
Sat 05:18:56 PM 43.4942 -108.4822 284° West 395 455 38,000  Level Salt Lake Center
Sat 05:19:58 PM 43.5206 -108.6222 285° West 395 455 38,000  Level Salt Lake Center
Sat 05:20:59 PM 43.5444 -108.7631 283° West 396 456 38,000  Level Salt Lake Center
Sat 05:22:01 PM 43.5733 -108.9292 284° West 400 460 38,000  Level Salt Lake Center
Sat 05:23:03 PM 43.5975 -109.0722 283° West 400 460 38,000  Level Salt Lake Center
Sat 05:24:05 PM 43.6267 -109.2392 284° West 402 463 38,000  Level Salt Lake Center
Sat 05:25:07 PM 43.6517 -109.3856 283° West 407 468 38,000  Level Salt Lake Center
Sat 05:26:08 PM 43.6764 -109.5317 283° West 404 465 38,000  Level Salt Lake Center
Sat 05:27:10 PM 43.7039 -109.7008 283° West 404 465 38,000  Level Salt Lake Center
Sat 05:28:12 PM 43.7272 -109.8461 283° West 405 466 38,000  Level Salt Lake Center
Sat 05:29:14 PM 43.7553 -110.0142 283° West 405 466 38,000  Level Salt Lake Center
Sat 05:30:16 PM 43.7786 -110.1592 283° West 405 466 38,000  Level Salt Lake Center
Sat 05:31:18 PM 43.8067 -110.3297 283° West 407 468 38,000  Level Salt Lake Center
Sat 05:32:19 PM 43.8297 -110.4742 283° West 404 465 38,000  Level Salt Lake Center
Sat 05:33:21 PM 43.8569 -110.6442 283° West 405 466 38,000  Level Salt Lake Center
Sat 05:34:23 PM 43.8792 -110.7903 282° West 405 466 38,000  Level Salt Lake Center
Sat 05:35:25 PM 43.9022 -110.9364 282° West 404 465 38,000  Level Salt Lake Center
Sat 05:36:27 PM 43.9278 -111.1083 282° West 407 468 38,000  Level Salt Lake Center
Sat 05:37:29 PM 43.9497 -111.2556 282° West 407 468 38,000  Level Salt Lake Center
Sat 05:38:30 PM 43.9761 -111.4286 282° West 409 471 38,000  Level Salt Lake Center
Sat 05:39:32 PM 43.9972 -111.5767 281° West 407 468 38,000  Level Salt Lake Center
Sat 05:40:34 PM 44.0197 -111.7250 282° West 410 472 38,000  Level Salt Lake Center
Sat 05:41:36 PM 44.0442 -111.8994 281° West 411 473 38,000  Level Salt Lake Center
Sat 05:42:38 PM 44.0664 -112.0486 282° West 411 473 38,000  Level Salt Lake Center
Sat 05:43:40 PM 44.0864 -112.2206 279° West 404 465 38,000  Level Salt Lake Center
Sat 05:44:42 PM 44.0692 -112.3692 261° West 405 466 38,000  Level Salt Lake Center
Sat 05:45:43 PM 44.0506 -112.5428 262° West 406 467 38,000  Level Salt Lake Center
Sat 05:46:45 PM 44.0328 -112.6922 261° West 408 470 38,000  Level Salt Lake Center
Sat 05:47:47 PM 44.0122 -112.8644 261° West 407 468 38,000  Level Salt Lake Center
Sat 05:48:49 PM 43.9944 -113.0117 261° West 404 465 38,000  Level Salt Lake Center
Sat 05:49:51 PM 43.9767 -113.1611 261° West 407 468 38,000  Level Salt Lake Center
Sat 05:50:52 PM 43.9575 -113.3347 261° West 408 470 38,000  Level Salt Lake Center
Sat 05:51:54 PM 43.9372 -113.4817 259° West 404 465 38,000  Level Salt Lake Center
Sat 05:52:56 PM 43.9167 -113.6586 261° West 415 478 38,000  Level Salt Lake Center
Sat 05:53:58 PM 43.8972 -113.8067 260° West 408 470 38,000 -98 Level Salt Lake Center
Sat 05:54:59 PM 43.8783 -113.9567 260° West 404 465 37,800 -1,171 Descending Salt Lake Center
Sat 05:56:01 PM 43.8544 -114.1361 260° West 423 487 35,600 -2,032 Descending Salt Lake Center
Sat 05:57:03 PM 43.8331 -114.2944 259° West 435 501 33,600 -2,177 Descending Salt Lake Center
Sat 05:58:05 PM 43.8092 -114.4806 260° West 440 506 31,100 -2,341 Descending Salt Lake Center
Sat 05:59:06 PM 43.7875 -114.6447 260° West 450 518 28,800 -2,439 Descending Salt Lake Center
Sat 06:00:08 PM 43.7633 -114.8256 260° West 420 483 26,100 -2,468 Descending Salt Lake Center
Sat 06:01:10 PM 43.7428 -114.9753 259° West 413 475 23,700 -2,293 Descending Salt Lake Center
Sat 06:02:11 PM 43.7222 -115.1253 259° West 414 476 21,400 -2,439 Descending Salt Lake Center
Sat 06:03:13 PM 43.6989 -115.2964 259° West 405 466 18,700 -2,468 Descending Salt Lake Center
Sat 06:04:15 PM 43.6772 -115.4475 259° West 401 461 16,300 -2,419 Descending Salt Lake Center
Sat 06:05:17 PM 43.6558 -115.6006 259° West 389 448 13,700 -2,488 Descending Salt Lake Center
Sat 06:06:18 PM 43.6333 -115.7517 258° West 387 445 11,200 -1,512 Descending Salt Lake Center
Sat 06:07:20 PM 43.6136 -115.8928 259° West 362 417 10,600 -1,113 Descending Salt Lake Center
Sat 06:08:22 PM 43.5975 -116.0006 258° West 303 349 8,900 -1,366 Descending Salt Lake Center
Sat 06:09:23 PM 43.6181 -116.1008 286° West 256 295 7,800 -1,268 Descending Salt Lake Center
Sat 06:10:25 PM 43.6381 -116.1889 287° West 231 266 6,300 -1,452 Descending Salt Lake Center

Login

Don't have an account? Register now (free) for customized features, flight alerts, and more!